sensor_id;sensor_type;location;lat;lon;timestamp;P1;durP1;ratioP1;P2;durP2;ratioP2
78298;SDS011;67556;55.656;12.590;2024-02-21T00:00:35;21.42;;;9.55;;
78298;SDS011;67556;55.656;12.590;2024-02-21T00:03:04;27.73;;;9.57;;
78298;SDS011;67556;55.656;12.590;2024-02-21T00:05:31;28.35;;;10.43;;
78298;SDS011;67556;55.656;12.590;2024-02-21T00:07:58;25.48;;;10.02;;
78298;SDS011;67556;55.656;12.590;2024-02-21T00:10:26;29.05;;;11.52;;
78298;SDS011;67556;55.656;12.590;2024-02-21T00:13:02;30.17;;;11.02;;
78298;SDS011;67556;55.656;12.590;2024-02-21T00:15:44;23.88;;;10.48;;
78298;SDS011;67556;55.656;12.590;2024-02-21T00:18:17;33.92;;;11.63;;
78298;SDS011;67556;55.656;12.590;2024-02-21T00:20:43;28.95;;;11.48;;
78298;SDS011;67556;55.656;12.590;2024-02-21T00:23:10;27.52;;;11.23;;
78298;SDS011;67556;55.656;12.590;2024-02-21T00:25:42;25.83;;;11.38;;
78298;SDS011;67556;55.656;12.590;2024-02-21T00:28:19;27.23;;;11.55;;
78298;SDS011;67556;55.656;12.590;2024-02-21T00:30:47;26.33;;;11.55;;
78298;SDS011;67556;55.656;12.590;2024-02-21T00:33:17;22.23;;;10.77;;
78298;SDS011;67556;55.656;12.590;2024-02-21T00:35:46;22.80;;;10.65;;
78298;SDS011;67556;55.656;12.590;2024-02-21T00:38:19;28.55;;;10.88;;
78298;SDS011;67556;55.656;12.590;2024-02-21T00:40:48;23.02;;;9.90;;
78298;SDS011;67556;55.656;12.590;2024-02-21T00:43:17;27.02;;;12.05;;
78298;SDS011;67556;55.656;12.590;2024-02-21T00:45:44;34.05;;;11.77;;
78298;SDS011;67556;55.656;12.590;2024-02-21T00:48:14;29.30;;;10.77;;
78298;SDS011;67556;55.656;12.590;2024-02-21T00:50:52;25.42;;;11.43;;
78298;SDS011;67556;55.656;12.590;2024-02-21T00:53:19;27.10;;;12.38;;
78298;SDS011;67556;55.656;12.590;2024-02-21T00:55:46;26.10;;;11.73;;
78298;SDS011;67556;55.656;12.590;2024-02-21T00:58:20;29.00;;;11.80;;
78298;SDS011;67556;55.656;12.590;2024-02-21T01:00:46;24.58;;;10.80;;
78298;SDS011;67556;55.656;12.590;2024-02-21T01:03:14;29.65;;;12.63;;
78298;SDS011;67556;55.656;12.590;2024-02-21T01:05:41;24.77;;;11.65;;
78298;SDS011;67556;55.656;12.590;2024-02-21T01:08:07;25.65;;;12.55;;
78298;SDS011;67556;55.656;12.590;2024-02-21T01:10:34;25.63;;;12.48;;
78298;SDS011;67556;55.656;12.590;2024-02-21T01:13:00;25.40;;;12.20;;
78298;SDS011;67556;55.656;12.590;2024-02-21T01:15:26;26.08;;;11.60;;
78298;SDS011;67556;55.656;12.590;2024-02-21T01:17:53;23.38;;;11.85;;
78298;SDS011;67556;55.656;12.590;2024-02-21T01:20:21;23.05;;;11.60;;
78298;SDS011;67556;55.656;12.590;2024-02-21T01:22:48;26.20;;;12.38;;
78298;SDS011;67556;55.656;12.590;2024-02-21T01:25:14;28.45;;;12.73;;
78298;SDS011;67556;55.656;12.590;2024-02-21T01:27:41;26.30;;;13.23;;
78298;SDS011;67556;55.656;12.590;2024-02-21T01:30:08;24.67;;;11.88;;
78298;SDS011;67556;55.656;12.590;2024-02-21T01:32:35;23.13;;;10.38;;
78298;SDS011;67556;55.656;12.590;2024-02-21T01:35:03;25.40;;;10.43;;
78298;SDS011;67556;55.656;12.590;2024-02-21T01:37:31;22.05;;;10.52;;
78298;SDS011;67556;55.656;12.590;2024-02-21T01:39:58;22.38;;;10.68;;
78298;SDS011;67556;55.656;12.590;2024-02-21T01:42:27;21.48;;;10.07;;
78298;SDS011;67556;55.656;12.590;2024-02-21T01:45:00;20.63;;;10.65;;
78298;SDS011;67556;55.656;12.590;2024-02-21T01:47:26;21.48;;;10.50;;
78298;SDS011;67556;55.656;12.590;2024-02-21T01:49:53;20.70;;;10.07;;
78298;SDS011;67556;55.656;12.590;2024-02-21T01:52:21;21.58;;;10.18;;
78298;SDS011;67556;55.656;12.590;2024-02-21T01:54:55;19.85;;;9.20;;
78298;SDS011;67556;55.656;12.590;2024-02-21T01:57:24;17.60;;;9.40;;
78298;SDS011;67556;55.656;12.590;2024-02-21T01:59:51;21.58;;;9.70;;
78298;SDS011;67556;55.656;12.590;2024-02-21T02:02:24;21.13;;;9.32;;
78298;SDS011;67556;55.656;12.590;2024-02-21T02:04:51;16.42;;;9.15;;
78298;SDS011;67556;55.656;12.590;2024-02-21T02:07:18;17.75;;;9.77;;
78298;SDS011;67556;55.656;12.590;2024-02-21T02:09:44;19.27;;;10.15;;
78298;SDS011;67556;55.656;12.590;2024-02-21T02:12:14;15.48;;;8.77;;
78298;SDS011;67556;55.656;12.590;2024-02-21T02:14:41;23.60;;;10.00;;
78298;SDS011;67556;55.656;12.590;2024-02-21T02:17:08;18.65;;;9.50;;
78298;SDS011;67556;55.656;12.590;2024-02-21T02:19:42;20.50;;;9.38;;
78298;SDS011;67556;55.656;12.590;2024-02-21T02:22:09;18.50;;;9.10;;
78298;SDS011;67556;55.656;12.590;2024-02-21T02:24:39;23.85;;;10.68;;
78298;SDS011;67556;55.656;12.590;2024-02-21T02:27:06;20.17;;;10.13;;
78298;SDS011;67556;55.656;12.590;2024-02-21T02:29:34;20.13;;;9.77;;
78298;SDS011;67556;55.656;12.590;2024-02-21T02:32:07;21.17;;;10.18;;
78298;SDS011;67556;55.656;12.590;2024-02-21T02:34:34;27.02;;;10.57;;
78298;SDS011;67556;55.656;12.590;2024-02-21T02:37:02;23.23;;;10.32;;
78298;SDS011;67556;55.656;12.590;2024-02-21T02:39:29;27.60;;;12.43;;
78298;SDS011;67556;55.656;12.590;2024-02-21T02:41:58;22.33;;;10.70;;
78298;SDS011;67556;55.656;12.590;2024-02-21T02:44:27;26.60;;;11.40;;
78298;SDS011;67556;55.656;12.590;2024-02-21T02:46:55;23.73;;;10.75;;
78298;SDS011;67556;55.656;12.590;2024-02-21T02:49:27;32.00;;;11.07;;
78298;SDS011;67556;55.656;12.590;2024-02-21T02:52:03;28.17;;;10.75;;
78298;SDS011;67556;55.656;12.590;2024-02-21T02:54:32;26.42;;;11.65;;
78298;SDS011;67556;55.656;12.590;2024-02-21T02:57:01;26.20;;;11.75;;
78298;SDS011;67556;55.656;12.590;2024-02-21T02:59:28;22.83;;;9.75;;
78298;SDS011;67556;55.656;12.590;2024-02-21T03:01:55;25.27;;;10.75;;
78298;SDS011;67556;55.656;12.590;2024-02-21T03:04:22;26.23;;;10.73;;
78298;SDS011;67556;55.656;12.590;2024-02-21T03:06:49;33.03;;;11.20;;
78298;SDS011;67556;55.656;12.590;2024-02-21T03:09:16;30.17;;;9.98;;
78298;SDS011;67556;55.656;12.590;2024-02-21T03:11:43;21.55;;;9.88;;
78298;SDS011;67556;55.656;12.590;2024-02-21T03:14:13;24.52;;;10.15;;
78298;SDS011;67556;55.656;12.590;2024-02-21T03:16:39;18.55;;;10.88;;
78298;SDS011;67556;55.656;12.590;2024-02-21T03:19:05;24.88;;;10.07;;
78298;SDS011;67556;55.656;12.590;2024-02-21T03:21:32;25.33;;;10.00;;
78298;SDS011;67556;55.656;12.590;2024-02-21T03:23:59;28.13;;;10.45;;
78298;SDS011;67556;55.656;12.590;2024-02-21T03:26:28;23.05;;;10.13;;
78298;SDS011;67556;55.656;12.590;2024-02-21T03:28:54;24.80;;;9.80;;
78298;SDS011;67556;55.656;12.590;2024-02-21T03:31:22;23.15;;;8.65;;
78298;SDS011;67556;55.656;12.590;2024-02-21T03:33:55;19.55;;;8.98;;
78298;SDS011;67556;55.656;12.590;2024-02-21T03:36:21;20.52;;;9.23;;
78298;SDS011;67556;55.656;12.590;2024-02-21T03:39:01;23.75;;;9.80;;
78298;SDS011;67556;55.656;12.590;2024-02-21T03:41:27;20.45;;;8.93;;
78298;SDS011;67556;55.656;12.590;2024-02-21T03:44:12;22.55;;;9.75;;
78298;SDS011;67556;55.656;12.590;2024-02-21T03:46:46;27.95;;;10.15;;
78298;SDS011;67556;55.656;12.590;2024-02-21T03:49:12;28.40;;;10.60;;
78298;SDS011;67556;55.656;12.590;2024-02-21T03:51:39;28.02;;;11.07;;
78298;SDS011;67556;55.656;12.590;2024-02-21T03:54:07;25.33;;;9.70;;
78298;SDS011;67556;55.656;12.590;2024-02-21T03:56:41;28.60;;;10.95;;
78298;SDS011;67556;55.656;12.590;2024-02-21T03:59:07;26.55;;;9.27;;
78298;SDS011;67556;55.656;12.590;2024-02-21T04:01:46;30.10;;;10.23;;
78298;SDS011;67556;55.656;12.590;2024-02-21T04:04:13;27.02;;;9.65;;
78298;SDS011;67556;55.656;12.590;2024-02-21T04:06:48;24.27;;;9.93;;
78298;SDS011;67556;55.656;12.590;2024-02-21T04:09:18;22.95;;;8.80;;
78298;SDS011;67556;55.656;12.590;2024-02-21T04:11:45;20.25;;;8.20;;
78298;SDS011;67556;55.656;12.590;2024-02-21T04:14:11;20.88;;;9.32;;
78298;SDS011;67556;55.656;12.590;2024-02-21T04:16:37;16.92;;;7.80;;
78298;SDS011;67556;55.656;12.590;2024-02-21T04:19:06;15.23;;;7.03;;
78298;SDS011;67556;55.656;12.590;2024-02-21T04:21:35;19.45;;;7.35;;
78298;SDS011;67556;55.656;12.590;2024-02-21T04:24:01;15.65;;;6.65;;
78298;SDS011;67556;55.656;12.590;2024-02-21T04:26:37;21.95;;;7.55;;
78298;SDS011;67556;55.656;12.590;2024-02-21T04:29:04;18.70;;;5.50;;
78298;SDS011;67556;55.656;12.590;2024-02-21T04:31:31;11.40;;;5.78;;
78298;SDS011;67556;55.656;12.590;2024-02-21T04:33:59;19.83;;;5.95;;
78298;SDS011;67556;55.656;12.590;2024-02-21T04:36:27;8.55;;;4.95;;
78298;SDS011;67556;55.656;12.590;2024-02-21T04:38:54;10.85;;;5.28;;
78298;SDS011;67556;55.656;12.590;2024-02-21T04:41:21;8.55;;;4.70;;
78298;SDS011;67556;55.656;12.590;2024-02-21T04:43:53;6.97;;;4.45;;
78298;SDS011;67556;55.656;12.590;2024-02-21T04:46:22;5.90;;;3.90;;
78298;SDS011;67556;55.656;12.590;2024-02-21T04:48:48;7.20;;;4.32;;
78298;SDS011;67556;55.656;12.590;2024-02-21T04:51:16;8.32;;;3.90;;
78298;SDS011;67556;55.656;12.590;2024-02-21T04:53:44;9.27;;;3.90;;
78298;SDS011;67556;55.656;12.590;2024-02-21T04:56:11;7.35;;;4.47;;
78298;SDS011;67556;55.656;12.590;2024-02-21T04:58:38;10.63;;;5.07;;
78298;SDS011;67556;55.656;12.590;2024-02-21T05:01:04;7.35;;;4.32;;
78298;SDS011;67556;55.656;12.590;2024-02-21T05:03:34;4.53;;;3.65;;
78298;SDS011;67556;55.656;12.590;2024-02-21T05:06:00;5.40;;;3.65;;
78298;SDS011;67556;55.656;12.590;2024-02-21T05:08:27;7.65;;;4.05;;
78298;SDS011;67556;55.656;12.590;2024-02-21T05:10:55;8.40;;;3.50;;
78298;SDS011;67556;55.656;12.590;2024-02-21T05:13:22;6.38;;;3.60;;
78298;SDS011;67556;55.656;12.590;2024-02-21T05:15:49;5.90;;;3.60;;
78298;SDS011;67556;55.656;12.590;2024-02-21T05:18:15;6.70;;;3.30;;
78298;SDS011;67556;55.656;12.590;2024-02-21T05:20:42;5.03;;;3.28;;
78298;SDS011;67556;55.656;12.590;2024-02-21T05:23:10;5.20;;;3.00;;
78298;SDS011;67556;55.656;12.590;2024-02-21T05:25:37;5.70;;;3.00;;
78298;SDS011;67556;55.656;12.590;2024-02-21T05:28:05;4.40;;;3.03;;
78298;SDS011;67556;55.656;12.590;2024-02-21T05:30:39;6.18;;;2.60;;
78298;SDS011;67556;55.656;12.590;2024-02-21T05:33:12;5.50;;;2.63;;
78298;SDS011;67556;55.656;12.590;2024-02-21T05:36:04;4.35;;;2.50;;
78298;SDS011;67556;55.656;12.590;2024-02-21T05:38:39;5.10;;;2.22;;
78298;SDS011;67556;55.656;12.590;2024-02-21T05:41:11;6.72;;;2.63;;
78298;SDS011;67556;55.656;12.590;2024-02-21T05:43:57;7.03;;;2.53;;
78298;SDS011;67556;55.656;12.590;2024-02-21T05:46:24;4.50;;;2.10;;
78298;SDS011;67556;55.656;12.590;2024-02-21T05:48:52;6.55;;;2.65;;
78298;SDS011;67556;55.656;12.590;2024-02-21T05:51:20;5.15;;;2.20;;
78298;SDS011;67556;55.656;12.590;2024-02-21T05:53:47;7.70;;;2.05;;
78298;SDS011;67556;55.656;12.590;2024-02-21T05:56:19;4.32;;;2.28;;
78298;SDS011;67556;55.656;12.590;2024-02-21T05:58:47;5.00;;;2.38;;
78298;SDS011;67556;55.656;12.590;2024-02-21T06:01:15;3.40;;;2.25;;
78298;SDS011;67556;55.656;12.590;2024-02-21T06:03:42;4.82;;;2.78;;
78298;SDS011;67556;55.656;12.590;2024-02-21T06:06:15;5.65;;;2.97;;
78298;SDS011;67556;55.656;12.590;2024-02-21T06:08:48;7.43;;;2.38;;
78298;SDS011;67556;55.656;12.590;2024-02-21T06:11:15;5.55;;;2.63;;
78298;SDS011;67556;55.656;12.590;2024-02-21T06:13:42;5.82;;;2.95;;
78298;SDS011;67556;55.656;12.590;2024-02-21T06:16:11;4.00;;;2.17;;
78298;SDS011;67556;55.656;12.590;2024-02-21T06:18:47;5.28;;;2.35;;
78298;SDS011;67556;55.656;12.590;2024-02-21T06:21:13;6.78;;;2.75;;
78298;SDS011;67556;55.656;12.590;2024-02-21T06:23:41;5.72;;;2.67;;
78298;SDS011;67556;55.656;12.590;2024-02-21T06:26:08;9.35;;;3.78;;
78298;SDS011;67556;55.656;12.590;2024-02-21T06:28:35;5.22;;;2.55;;
78298;SDS011;67556;55.656;12.590;2024-02-21T06:31:03;4.25;;;2.60;;
78298;SDS011;67556;55.656;12.590;2024-02-21T06:33:30;6.47;;;2.33;;
78298;SDS011;67556;55.656;12.590;2024-02-21T06:36:02;7.65;;;2.20;;
78298;SDS011;67556;55.656;12.590;2024-02-21T06:38:29;5.78;;;2.35;;
78298;SDS011;67556;55.656;12.590;2024-02-21T06:40:58;7.47;;;3.03;;
78298;SDS011;67556;55.656;12.590;2024-02-21T06:43:27;3.88;;;1.92;;
78298;SDS011;67556;55.656;12.590;2024-02-21T06:46:01;3.90;;;2.70;;
78298;SDS011;67556;55.656;12.590;2024-02-21T06:48:30;6.63;;;2.70;;
78298;SDS011;67556;55.656;12.590;2024-02-21T06:50:57;4.95;;;2.55;;
78298;SDS011;67556;55.656;12.590;2024-02-21T06:53:25;5.15;;;2.92;;
78298;SDS011;67556;55.656;12.590;2024-02-21T06:55:52;9.02;;;2.53;;
78298;SDS011;67556;55.656;12.590;2024-02-21T06:58:20;8.80;;;3.00;;
78298;SDS011;67556;55.656;12.590;2024-02-21T07:00:55;7.60;;;3.42;;
78298;SDS011;67556;55.656;12.590;2024-02-21T07:03:23;6.53;;;2.00;;
78298;SDS011;67556;55.656;12.590;2024-02-21T07:05:52;8.10;;;2.47;;
78298;SDS011;67556;55.656;12.590;2024-02-21T07:08:19;7.63;;;2.60;;
78298;SDS011;67556;55.656;12.590;2024-02-21T07:10:54;6.05;;;2.45;;
78298;SDS011;67556;55.656;12.590;2024-02-21T07:13:22;10.30;;;3.35;;
78298;SDS011;67556;55.656;12.590;2024-02-21T07:15:49;8.00;;;3.00;;
78298;SDS011;67556;55.656;12.590;2024-02-21T07:18:23;13.23;;;2.35;;
78298;SDS011;67556;55.656;12.590;2024-02-21T07:20:56;10.75;;;2.90;;
78298;SDS011;67556;55.656;12.590;2024-02-21T07:23:30;4.40;;;1.90;;
78298;SDS011;67556;55.656;12.590;2024-02-21T07:25:59;8.95;;;2.28;;
78298;SDS011;67556;55.656;12.590;2024-02-21T07:28:26;11.27;;;2.78;;
78298;SDS011;67556;55.656;12.590;2024-02-21T07:31:00;7.95;;;2.60;;
78298;SDS011;67556;55.656;12.590;2024-02-21T07:33:27;8.10;;;2.35;;
78298;SDS011;67556;55.656;12.590;2024-02-21T07:35:56;7.45;;;2.25;;
78298;SDS011;67556;55.656;12.590;2024-02-21T07:38:32;9.85;;;2.63;;
78298;SDS011;67556;55.656;12.590;2024-02-21T07:41:00;8.05;;;2.17;;
78298;SDS011;67556;55.656;12.590;2024-02-21T07:43:30;9.27;;;2.40;;
78298;SDS011;67556;55.656;12.590;2024-02-21T07:45:57;12.05;;;2.78;;
78298;SDS011;67556;55.656;12.590;2024-02-21T07:48:25;8.48;;;2.25;;
78298;SDS011;67556;55.656;12.590;2024-02-21T07:50:54;11.27;;;2.60;;
78298;SDS011;67556;55.656;12.590;2024-02-21T07:53:20;9.10;;;3.20;;
78298;SDS011;67556;55.656;12.590;2024-02-21T07:55:49;8.48;;;2.60;;
78298;SDS011;67556;55.656;12.590;2024-02-21T07:58:17;11.15;;;2.58;;
78298;SDS011;67556;55.656;12.590;2024-02-21T08:00:43;5.40;;;2.25;;
78298;SDS011;67556;55.656;12.590;2024-02-21T08:03:17;11.38;;;2.83;;
78298;SDS011;67556;55.656;12.590;2024-02-21T08:05:44;10.27;;;2.55;;
78298;SDS011;67556;55.656;12.590;2024-02-21T08:08:19;13.63;;;3.33;;
78298;SDS011;67556;55.656;12.590;2024-02-21T08:10:49;8.13;;;2.47;;
78298;SDS011;67556;55.656;12.590;2024-02-21T08:13:28;8.32;;;2.70;;
78298;SDS011;67556;55.656;12.590;2024-02-21T08:15:55;7.65;;;3.05;;
78298;SDS011;67556;55.656;12.590;2024-02-21T08:18:22;10.65;;;3.05;;
78298;SDS011;67556;55.656;12.590;2024-02-21T08:20:50;12.50;;;3.50;;
78298;SDS011;67556;55.656;12.590;2024-02-21T08:23:18;13.60;;;3.22;;
78298;SDS011;67556;55.656;12.590;2024-02-21T08:25:49;13.65;;;3.85;;
78298;SDS011;67556;55.656;12.590;2024-02-21T08:28:25;11.68;;;2.70;;
78298;SDS011;67556;55.656;12.590;2024-02-21T08:30:53;13.15;;;3.67;;
78298;SDS011;67556;55.656;12.590;2024-02-21T08:33:20;8.93;;;2.28;;
78298;SDS011;67556;55.656;12.590;2024-02-21T08:35:51;8.27;;;2.33;;
78298;SDS011;67556;55.656;12.590;2024-02-21T08:38:34;10.48;;;2.97;;
78298;SDS011;67556;55.656;12.590;2024-02-21T08:41:02;6.03;;;2.33;;
78298;SDS011;67556;55.656;12.590;2024-02-21T08:43:30;10.48;;;3.30;;
78298;SDS011;67556;55.656;12.590;2024-02-21T08:46:21;11.93;;;2.70;;
78298;SDS011;67556;55.656;12.590;2024-02-21T08:48:59;11.65;;;2.55;;
78298;SDS011;67556;55.656;12.590;2024-02-21T08:51:27;10.23;;;2.55;;
78298;SDS011;67556;55.656;12.590;2024-02-21T08:54:02;13.63;;;3.85;;
78298;SDS011;67556;55.656;12.590;2024-02-21T08:56:33;16.02;;;3.97;;
78298;SDS011;67556;55.656;12.590;2024-02-21T08:59:08;11.52;;;3.60;;
78298;SDS011;67556;55.656;12.590;2024-02-21T09:01:55;18.05;;;3.70;;
78298;SDS011;67556;55.656;12.590;2024-02-21T09:04:24;11.65;;;2.70;;
78298;SDS011;67556;55.656;12.590;2024-02-21T09:07:02;14.18;;;3.63;;
78298;SDS011;67556;55.656;12.590;2024-02-21T09:09:35;20.52;;;4.10;;
78298;SDS011;67556;55.656;12.590;2024-02-21T09:12:04;17.13;;;3.85;;
78298;SDS011;67556;55.656;12.590;2024-02-21T09:14:38;13.43;;;3.13;;
78298;SDS011;67556;55.656;12.590;2024-02-21T09:17:08;10.35;;;2.45;;
78298;SDS011;67556;55.656;12.590;2024-02-21T09:19:40;12.07;;;4.00;;
78298;SDS011;67556;55.656;12.590;2024-02-21T09:22:13;11.70;;;3.33;;
78298;SDS011;67556;55.656;12.590;2024-02-21T09:24:48;9.98;;;2.90;;
78298;SDS011;67556;55.656;12.590;2024-02-21T09:27:28;7.40;;;3.63;;
78298;SDS011;67556;55.656;12.590;2024-02-21T09:30:08;9.13;;;2.28;;
78298;SDS011;67556;55.656;12.590;2024-02-21T09:32:38;14.80;;;3.20;;
78298;SDS011;67556;55.656;12.590;2024-02-21T09:35:07;5.75;;;2.33;;
78298;SDS011;67556;55.656;12.590;2024-02-21T09:37:36;6.82;;;3.25;;
78298;SDS011;67556;55.656;12.590;2024-02-21T09:40:17;13.25;;;3.58;;
78298;SDS011;67556;55.656;12.590;2024-02-21T09:42:57;8.73;;;2.70;;
78298;SDS011;67556;55.656;12.590;2024-02-21T09:45:33;7.68;;;2.15;;
78298;SDS011;67556;55.656;12.590;2024-02-21T09:50:53;8.77;;;2.30;;
78298;SDS011;67556;55.656;12.590;2024-02-21T09:53:24;11.30;;;2.50;;
78298;SDS011;67556;55.656;12.590;2024-02-21T09:55:58;9.23;;;2.30;;
78298;SDS011;67556;55.656;12.590;2024-02-21T09:58:33;9.52;;;2.90;;
78298;SDS011;67556;55.656;12.590;2024-02-21T10:01:02;7.95;;;2.17;;
78298;SDS011;67556;55.656;12.590;2024-02-21T10:03:32;10.50;;;2.63;;
78298;SDS011;67556;55.656;12.590;2024-02-21T10:06:10;10.32;;;2.88;;
78298;SDS011;67556;55.656;12.590;2024-02-21T10:08:39;9.60;;;2.60;;
78298;SDS011;67556;55.656;12.590;2024-02-21T10:11:21;7.78;;;2.30;;
78298;SDS011;67556;55.656;12.590;2024-02-21T10:16:21;7.88;;;2.20;;
78298;SDS011;67556;55.656;12.590;2024-02-21T10:18:53;5.15;;;1.75;;
78298;SDS011;67556;55.656;12.590;2024-02-21T10:21:24;8.07;;;2.55;;
78298;SDS011;67556;55.656;12.590;2024-02-21T10:23:51;4.22;;;1.70;;
78298;SDS011;67556;55.656;12.590;2024-02-21T10:26:19;9.75;;;2.33;;
78298;SDS011;67556;55.656;12.590;2024-02-21T10:28:46;11.75;;;3.30;;
78298;SDS011;67556;55.656;12.590;2024-02-21T10:31:21;4.03;;;1.73;;
78298;SDS011;67556;55.656;12.590;2024-02-21T10:33:56;10.05;;;2.15;;
78298;SDS011;67556;55.656;12.590;2024-02-21T10:36:39;6.70;;;2.42;;
78298;SDS011;67556;55.656;12.590;2024-02-21T10:39:07;10.27;;;2.40;;
78298;SDS011;67556;55.656;12.590;2024-02-21T10:41:43;10.15;;;2.28;;
78298;SDS011;67556;55.656;12.590;2024-02-21T10:44:10;9.18;;;3.53;;
78298;SDS011;67556;55.656;12.590;2024-02-21T10:46:37;9.57;;;2.50;;
78298;SDS011;67556;55.656;12.590;2024-02-21T10:49:08;5.70;;;2.08;;
78298;SDS011;67556;55.656;12.590;2024-02-21T10:51:37;7.65;;;2.53;;
78298;SDS011;67556;55.656;12.590;2024-02-21T10:57:19;4.82;;;2.17;;
78298;SDS011;67556;55.656;12.590;2024-02-21T10:59:50;6.25;;;2.00;;
78298;SDS011;67556;55.656;12.590;2024-02-21T11:02:18;9.40;;;2.45;;
78298;SDS011;67556;55.656;12.590;2024-02-21T11:04:53;7.95;;;2.33;;
78298;SDS011;67556;55.656;12.590;2024-02-21T11:07:27;7.47;;;2.13;;
78298;SDS011;67556;55.656;12.590;2024-02-21T11:10:01;7.35;;;1.92;;
78298;SDS011;67556;55.656;12.590;2024-02-21T11:12:36;9.40;;;2.50;;
78298;SDS011;67556;55.656;12.590;2024-02-21T11:15:13;9.60;;;2.20;;
78298;SDS011;67556;55.656;12.590;2024-02-21T11:17:53;6.72;;;2.13;;
78298;SDS011;67556;55.656;12.590;2024-02-21T11:20:21;6.65;;;2.45;;
78298;SDS011;67556;55.656;12.590;2024-02-21T11:22:59;7.00;;;2.55;;
78298;SDS011;67556;55.656;12.590;2024-02-21T11:25:30;5.82;;;2.10;;
78298;SDS011;67556;55.656;12.590;2024-02-21T11:28:03;7.60;;;2.33;;
78298;SDS011;67556;55.656;12.590;2024-02-21T11:30:39;7.53;;;2.40;;
78298;SDS011;67556;55.656;12.590;2024-02-21T11:33:11;8.50;;;2.30;;
78298;SDS011;67556;55.656;12.590;2024-02-21T11:35:39;6.35;;;2.25;;
78298;SDS011;67556;55.656;12.590;2024-02-21T11:38:10;10.10;;;2.15;;
78298;SDS011;67556;55.656;12.590;2024-02-21T11:40:41;5.25;;;2.15;;
78298;SDS011;67556;55.656;12.590;2024-02-21T11:43:11;8.02;;;3.25;;
78298;SDS011;67556;55.656;12.590;2024-02-21T11:45:38;5.28;;;2.00;;
78298;SDS011;67556;55.656;12.590;2024-02-21T11:48:07;7.30;;;2.53;;
78298;SDS011;67556;55.656;12.590;2024-02-21T11:50:39;8.93;;;2.00;;
78298;SDS011;67556;55.656;12.590;2024-02-21T11:53:13;6.22;;;2.05;;
78298;SDS011;67556;55.656;12.590;2024-02-21T11:55:41;5.30;;;2.15;;
78298;SDS011;67556;55.656;12.590;2024-02-21T11:58:09;7.65;;;2.47;;
78298;SDS011;67556;55.656;12.590;2024-02-21T12:00:37;7.20;;;2.10;;
78298;SDS011;67556;55.656;12.590;2024-02-21T12:03:05;7.55;;;2.15;;
78298;SDS011;67556;55.656;12.590;2024-02-21T12:05:32;6.40;;;2.42;;
78298;SDS011;67556;55.656;12.590;2024-02-21T12:08:01;9.10;;;2.50;;
78298;SDS011;67556;55.656;12.590;2024-02-21T12:10:27;7.75;;;2.22;;
78298;SDS011;67556;55.656;12.590;2024-02-21T12:12:53;9.55;;;2.47;;
78298;SDS011;67556;55.656;12.590;2024-02-21T12:15:29;10.60;;;2.72;;
78298;SDS011;67556;55.656;12.590;2024-02-21T12:18:00;5.00;;;2.20;;
78298;SDS011;67556;55.656;12.590;2024-02-21T12:20:27;9.23;;;2.75;;
78298;SDS011;67556;55.656;12.590;2024-02-21T12:22:55;7.13;;;2.65;;
78298;SDS011;67556;55.656;12.590;2024-02-21T12:25:23;9.45;;;2.80;;
78298;SDS011;67556;55.656;12.590;2024-02-21T12:27:57;12.18;;;2.97;;
78298;SDS011;67556;55.656;12.590;2024-02-21T12:30:27;5.90;;;1.90;;
78298;SDS011;67556;55.656;12.590;2024-02-21T12:32:58;7.10;;;3.05;;
78298;SDS011;67556;55.656;12.590;2024-02-21T12:35:34;10.27;;;2.65;;
78298;SDS011;67556;55.656;12.590;2024-02-21T12:38:12;7.70;;;2.38;;
78298;SDS011;67556;55.656;12.590;2024-02-21T12:40:58;8.25;;;2.28;;
78298;SDS011;67556;55.656;12.590;2024-02-21T12:43:45;10.25;;;2.50;;
78298;SDS011;67556;55.656;12.590;2024-02-21T12:46:12;9.35;;;2.95;;
78298;SDS011;67556;55.656;12.590;2024-02-21T12:48:57;7.05;;;2.45;;
78298;SDS011;67556;55.656;12.590;2024-02-21T12:51:44;9.90;;;2.35;;
78298;SDS011;67556;55.656;12.590;2024-02-21T12:54:11;8.60;;;2.83;;
78298;SDS011;67556;55.656;12.590;2024-02-21T12:56:53;9.23;;;2.45;;
78298;SDS011;67556;55.656;12.590;2024-02-21T12:59:41;11.75;;;2.38;;
78298;SDS011;67556;55.656;12.590;2024-02-21T13:02:07;6.68;;;2.22;;
78298;SDS011;67556;55.656;12.590;2024-02-21T13:04:45;8.75;;;2.90;;
78298;SDS011;67556;55.656;12.590;2024-02-21T13:07:22;5.78;;;2.05;;
78298;SDS011;67556;55.656;12.590;2024-02-21T13:10:02;5.55;;;1.95;;
78298;SDS011;67556;55.656;12.590;2024-02-21T13:12:38;7.80;;;2.10;;
78298;SDS011;67556;55.656;12.590;2024-02-21T13:15:06;9.68;;;2.58;;
78298;SDS011;67556;55.656;12.590;2024-02-21T13:17:44;9.55;;;2.47;;
78298;SDS011;67556;55.656;12.590;2024-02-21T13:20:11;8.93;;;2.60;;
78298;SDS011;67556;55.656;12.590;2024-02-21T13:22:41;6.70;;;2.00;;
78298;SDS011;67556;55.656;12.590;2024-02-21T13:25:23;6.57;;;2.22;;
78298;SDS011;67556;55.656;12.590;2024-02-21T13:27:53;7.20;;;2.40;;
78298;SDS011;67556;55.656;12.590;2024-02-21T13:30:20;6.82;;;2.55;;
78298;SDS011;67556;55.656;12.590;2024-02-21T13:33:05;9.73;;;3.38;;
78298;SDS011;67556;55.656;12.590;2024-02-21T13:35:34;9.07;;;2.25;;
78298;SDS011;67556;55.656;12.590;2024-02-21T13:38:15;13.13;;;2.50;;
78298;SDS011;67556;55.656;12.590;2024-02-21T13:40:48;7.55;;;2.60;;
78298;SDS011;67556;55.656;12.590;2024-02-21T13:43:15;8.27;;;2.60;;
78298;SDS011;67556;55.656;12.590;2024-02-21T13:45:59;7.63;;;2.90;;
78298;SDS011;67556;55.656;12.590;2024-02-21T13:48:28;11.30;;;2.50;;
78298;SDS011;67556;55.656;12.590;2024-02-21T13:51:13;7.78;;;2.50;;
78298;SDS011;67556;55.656;12.590;2024-02-21T13:53:43;8.23;;;2.10;;
78298;SDS011;67556;55.656;12.590;2024-02-21T13:56:22;8.40;;;2.55;;
78298;SDS011;67556;55.656;12.590;2024-02-21T13:58:59;7.80;;;2.42;;
78298;SDS011;67556;55.656;12.590;2024-02-21T14:01:28;9.68;;;2.33;;
78298;SDS011;67556;55.656;12.590;2024-02-21T14:04:00;6.95;;;2.17;;
78298;SDS011;67556;55.656;12.590;2024-02-21T14:06:42;8.93;;;2.67;;
78298;SDS011;67556;55.656;12.590;2024-02-21T14:09:31;10.40;;;2.67;;
78298;SDS011;67556;55.656;12.590;2024-02-21T14:11:58;7.70;;;2.42;;
78298;SDS011;67556;55.656;12.590;2024-02-21T14:14:38;5.53;;;2.13;;
78298;SDS011;67556;55.656;12.590;2024-02-21T14:17:11;8.07;;;2.40;;
78298;SDS011;67556;55.656;12.590;2024-02-21T14:19:39;10.55;;;3.03;;
78298;SDS011;67556;55.656;12.590;2024-02-21T14:22:07;8.32;;;2.55;;
78298;SDS011;67556;55.656;12.590;2024-02-21T14:24:36;8.15;;;2.83;;
78298;SDS011;67556;55.656;12.590;2024-02-21T14:27:05;9.30;;;2.45;;
78298;SDS011;67556;55.656;12.590;2024-02-21T14:29:32;6.18;;;2.28;;
78298;SDS011;67556;55.656;12.590;2024-02-21T14:31:58;9.32;;;2.42;;
78298;SDS011;67556;55.656;12.590;2024-02-21T14:34:35;9.57;;;2.70;;
78298;SDS011;67556;55.656;12.590;2024-02-21T14:37:11;11.02;;;2.45;;
78298;SDS011;67556;55.656;12.590;2024-02-21T14:39:42;7.70;;;2.47;;
78298;SDS011;67556;55.656;12.590;2024-02-21T14:42:09;7.18;;;2.13;;
78298;SDS011;67556;55.656;12.590;2024-02-21T14:44:42;13.18;;;2.97;;
78298;SDS011;67556;55.656;12.590;2024-02-21T14:47:29;8.48;;;2.50;;
78298;SDS011;67556;55.656;12.590;2024-02-21T14:49:58;10.13;;;2.58;;
78298;SDS011;67556;55.656;12.590;2024-02-21T14:52:35;11.43;;;3.15;;
78298;SDS011;67556;55.656;12.590;2024-02-21T14:55:23;9.07;;;2.60;;